EDLI 170947Z 29005KT 9999 ///024 12/11 Q1002

Wind aktuell: 310° mit 8 kt

Wind 10 Minuten extrem:

230° bis 340° mit 2 kt bis 10 kt

Seitenwindkomponente: -2.6 kt

Wolkengrenze 1: 2000

Wolkengrenze 2: keine

Wolkengrenze 3: keine

Sichtweite: 20.000 Meter

Vorheriges Wetter:

Aktuelles Wetter:

Temperatur: 12.3 °C

Taupunkt: 11.8 °C

Luftfeuchtigkeit: 96%

QNH: 1002 hPa 

QFE: 986 hPa

Diese Daten werden automatisch ermittelt bzw. übertragen und sind nicht geprüft. Für die Richtigkeit wird daher keine Gewähr übernommen. Sie ersetzen im übrigen nicht die Flugwetterberatung. Alle Zeitangaben beziehen sich auf UTC. Die Seite wird einmal die Minute aktualisiert! Sollten Sie ein ältere Seite haben, so drücken Sie bitte auf den Reload Button Ihres Browsers!